sensor_id;sensor_type;location;lat;lon;timestamp;temperature;humidity
9486;DHT22;4781;48.776;9.200;2024-03-02T00:00:50;6.90;99.90
9486;DHT22;4781;48.776;9.200;2024-03-02T00:03:20;7.00;99.90
9486;DHT22;4781;48.776;9.200;2024-03-02T00:05:51;6.90;99.90
9486;DHT22;4781;48.776;9.200;2024-03-02T00:08:24;7.00;99.90
9486;DHT22;4781;48.776;9.200;2024-03-02T00:10:57;6.90;99.90
9486;DHT22;4781;48.776;9.200;2024-03-02T00:13:27;7.00;99.90
9486;DHT22;4781;48.776;9.200;2024-03-02T00:15:58;6.90;99.90
9486;DHT22;4781;48.776;9.200;2024-03-02T00:18:32;6.90;99.90
9486;DHT22;4781;48.776;9.200;2024-03-02T00:21:01;6.90;99.90
9486;DHT22;4781;48.776;9.200;2024-03-02T00:23:32;6.90;99.90
9486;DHT22;4781;48.776;9.200;2024-03-02T00:26:01;6.90;99.90
9486;DHT22;4781;48.776;9.200;2024-03-02T00:28:32;6.90;99.90
9486;DHT22;4781;48.776;9.200;2024-03-02T00:31:09;6.90;99.90
9486;DHT22;4781;48.776;9.200;2024-03-02T00:33:47;6.90;99.90
9486;DHT22;4781;48.776;9.200;2024-03-02T00:36:26;6.90;99.90
9486;DHT22;4781;48.776;9.200;2024-03-02T00:38:54;6.80;99.90
9486;DHT22;4781;48.776;9.200;2024-03-02T00:41:27;6.80;99.90
9486;DHT22;4781;48.776;9.200;2024-03-02T00:44:02;6.80;99.90
9486;DHT22;4781;48.776;9.200;2024-03-02T00:46:42;6.80;99.90
9486;DHT22;4781;48.776;9.200;2024-03-02T00:49:24;6.80;99.90
9486;DHT22;4781;48.776;9.200;2024-03-02T00:51:54;6.80;99.90
9486;DHT22;4781;48.776;9.200;2024-03-02T00:54:26;6.80;99.90
9486;DHT22;4781;48.776;9.200;2024-03-02T00:56:55;6.80;99.90
9486;DHT22;4781;48.776;9.200;2024-03-02T00:59:24;6.80;99.90
9486;DHT22;4781;48.776;9.200;2024-03-02T01:01:52;6.80;99.90
9486;DHT22;4781;48.776;9.200;2024-03-02T01:04:21;6.80;99.90
9486;DHT22;4781;48.776;9.200;2024-03-02T01:06:49;6.80;99.90
9486;DHT22;4781;48.776;9.200;2024-03-02T01:09:18;6.80;99.90
9486;DHT22;4781;48.776;9.200;2024-03-02T01:11:47;6.80;99.90
9486;DHT22;4781;48.776;9.200;2024-03-02T01:14:15;6.80;99.90
9486;DHT22;4781;48.776;9.200;2024-03-02T01:16:43;6.80;99.90
9486;DHT22;4781;48.776;9.200;2024-03-02T01:19:12;6.80;99.90
9486;DHT22;4781;48.776;9.200;2024-03-02T01:21:41;6.80;99.90
9486;DHT22;4781;48.776;9.200;2024-03-02T01:24:09;6.70;99.90
9486;DHT22;4781;48.776;9.200;2024-03-02T01:26:38;6.70;99.90
9486;DHT22;4781;48.776;9.200;2024-03-02T01:29:06;6.70;99.90
9486;DHT22;4781;48.776;9.200;2024-03-02T01:31:34;6.70;99.90
9486;DHT22;4781;48.776;9.200;2024-03-02T01:34:03;6.70;99.90
9486;DHT22;4781;48.776;9.200;2024-03-02T01:36:31;6.60;99.90
9486;DHT22;4781;48.776;9.200;2024-03-02T01:38:59;6.60;99.90
9486;DHT22;4781;48.776;9.200;2024-03-02T01:41:28;6.60;99.90
9486;DHT22;4781;48.776;9.200;2024-03-02T01:43:56;6.60;99.90
9486;DHT22;4781;48.776;9.200;2024-03-02T01:46:25;6.60;99.90
9486;DHT22;4781;48.776;9.200;2024-03-02T01:48:53;6.50;99.90
9486;DHT22;4781;48.776;9.200;2024-03-02T01:51:21;6.60;99.90
9486;DHT22;4781;48.776;9.200;2024-03-02T01:53:50;6.50;99.90
9486;DHT22;4781;48.776;9.200;2024-03-02T01:56:18;6.50;99.90
9486;DHT22;4781;48.776;9.200;2024-03-02T01:58:47;6.40;99.90
9486;DHT22;4781;48.776;9.200;2024-03-02T02:01:15;6.40;99.90
9486;DHT22;4781;48.776;9.200;2024-03-02T02:03:44;6.20;99.90
9486;DHT22;4781;48.776;9.200;2024-03-02T02:06:12;6.30;99.90
9486;DHT22;4781;48.776;9.200;2024-03-02T02:08:41;6.20;99.90
9486;DHT22;4781;48.776;9.200;2024-03-02T02:11:09;6.10;99.90
9486;DHT22;4781;48.776;9.200;2024-03-02T02:13:38;6.10;99.90
9486;DHT22;4781;48.776;9.200;2024-03-02T02:16:07;6.10;99.90
9486;DHT22;4781;48.776;9.200;2024-03-02T02:18:36;6.00;99.90
9486;DHT22;4781;48.776;9.200;2024-03-02T02:21:04;6.00;99.90
9486;DHT22;4781;48.776;9.200;2024-03-02T02:23:32;5.90;99.90
9486;DHT22;4781;48.776;9.200;2024-03-02T02:26:01;5.90;99.90
9486;DHT22;4781;48.776;9.200;2024-03-02T02:28:30;5.90;99.90
9486;DHT22;4781;48.776;9.200;2024-03-02T02:30:58;5.90;99.90
9486;DHT22;4781;48.776;9.200;2024-03-02T02:33:27;5.90;99.90
9486;DHT22;4781;48.776;9.200;2024-03-02T02:35:55;5.80;99.90
9486;DHT22;4781;48.776;9.200;2024-03-02T02:38:23;5.80;99.90
9486;DHT22;4781;48.776;9.200;2024-03-02T02:40:52;5.80;99.90
9486;DHT22;4781;48.776;9.200;2024-03-02T02:43:21;5.70;99.90
9486;DHT22;4781;48.776;9.200;2024-03-02T02:45:49;5.70;99.90
9486;DHT22;4781;48.776;9.200;2024-03-02T02:48:17;5.60;99.90
9486;DHT22;4781;48.776;9.200;2024-03-02T02:50:46;5.50;99.90
9486;DHT22;4781;48.776;9.200;2024-03-02T02:53:14;5.50;99.90
9486;DHT22;4781;48.776;9.200;2024-03-02T02:55:42;5.40;99.90
9486;DHT22;4781;48.776;9.200;2024-03-02T02:58:11;5.50;99.90
9486;DHT22;4781;48.776;9.200;2024-03-02T03:00:41;5.30;99.90
9486;DHT22;4781;48.776;9.200;2024-03-02T03:03:09;5.30;99.90
9486;DHT22;4781;48.776;9.200;2024-03-02T03:05:37;5.30;99.90
9486;DHT22;4781;48.776;9.200;2024-03-02T03:08:06;5.30;99.90
9486;DHT22;4781;48.776;9.200;2024-03-02T03:10:34;5.30;99.90
9486;DHT22;4781;48.776;9.200;2024-03-02T03:13:03;5.30;99.90
9486;DHT22;4781;48.776;9.200;2024-03-02T03:15:36;5.20;99.90
9486;DHT22;4781;48.776;9.200;2024-03-02T03:18:04;5.20;99.90
9486;DHT22;4781;48.776;9.200;2024-03-02T03:20:35;5.20;99.90
9486;DHT22;4781;48.776;9.200;2024-03-02T03:23:03;5.00;99.90
9486;DHT22;4781;48.776;9.200;2024-03-02T03:25:31;5.00;99.90
9486;DHT22;4781;48.776;9.200;2024-03-02T03:28:10;5.00;99.90
9486;DHT22;4781;48.776;9.200;2024-03-02T03:30:39;5.00;99.90
9486;DHT22;4781;48.776;9.200;2024-03-02T03:33:08;5.00;99.90
9486;DHT22;4781;48.776;9.200;2024-03-02T03:35:37;5.00;99.90
9486;DHT22;4781;48.776;9.200;2024-03-02T03:38:05;5.00;99.90
9486;DHT22;4781;48.776;9.200;2024-03-02T03:40:34;4.90;99.90
9486;DHT22;4781;48.776;9.200;2024-03-02T03:43:02;4.90;99.90
9486;DHT22;4781;48.776;9.200;2024-03-02T03:45:30;5.00;99.90
9486;DHT22;4781;48.776;9.200;2024-03-02T03:47:59;4.90;99.90
9486;DHT22;4781;48.776;9.200;2024-03-02T03:50:28;4.90;99.90
9486;DHT22;4781;48.776;9.200;2024-03-02T03:52:56;4.90;99.90
9486;DHT22;4781;48.776;9.200;2024-03-02T03:55:25;4.90;99.90
9486;DHT22;4781;48.776;9.200;2024-03-02T03:57:53;4.80;99.90
9486;DHT22;4781;48.776;9.200;2024-03-02T04:00:22;4.80;99.90
9486;DHT22;4781;48.776;9.200;2024-03-02T04:02:50;4.80;99.90
9486;DHT22;4781;48.776;9.200;2024-03-02T04:05:18;4.80;99.90
9486;DHT22;4781;48.776;9.200;2024-03-02T04:07:47;4.80;99.90
9486;DHT22;4781;48.776;9.200;2024-03-02T04:10:15;4.80;99.90
9486;DHT22;4781;48.776;9.200;2024-03-02T04:12:44;4.70;99.90
9486;DHT22;4781;48.776;9.200;2024-03-02T04:15:12;4.60;99.90
9486;DHT22;4781;48.776;9.200;2024-03-02T04:17:41;4.70;99.90
9486;DHT22;4781;48.776;9.200;2024-03-02T04:20:10;4.70;99.90
9486;DHT22;4781;48.776;9.200;2024-03-02T04:22:39;4.70;99.90
9486;DHT22;4781;48.776;9.200;2024-03-02T04:25:07;4.70;99.90
9486;DHT22;4781;48.776;9.200;2024-03-02T04:27:36;4.70;99.90
9486;DHT22;4781;48.776;9.200;2024-03-02T04:30:05;4.70;99.90
9486;DHT22;4781;48.776;9.200;2024-03-02T04:32:34;4.60;99.90
9486;DHT22;4781;48.776;9.200;2024-03-02T04:35:03;4.60;99.90
9486;DHT22;4781;48.776;9.200;2024-03-02T04:37:34;4.60;99.90
9486;DHT22;4781;48.776;9.200;2024-03-02T04:40:02;4.60;99.90
9486;DHT22;4781;48.776;9.200;2024-03-02T04:42:33;4.60;99.90
9486;DHT22;4781;48.776;9.200;2024-03-02T04:45:02;4.60;99.90
9486;DHT22;4781;48.776;9.200;2024-03-02T04:47:30;4.60;99.90
9486;DHT22;4781;48.776;9.200;2024-03-02T04:49:58;4.60;99.90
9486;DHT22;4781;48.776;9.200;2024-03-02T04:52:27;4.60;99.90
9486;DHT22;4781;48.776;9.200;2024-03-02T04:54:55;4.60;99.90
9486;DHT22;4781;48.776;9.200;2024-03-02T04:57:41;4.60;99.90
9486;DHT22;4781;48.776;9.200;2024-03-02T05:00:10;4.60;99.90
9486;DHT22;4781;48.776;9.200;2024-03-02T05:02:39;4.60;99.90
9486;DHT22;4781;48.776;9.200;2024-03-02T05:05:07;4.50;99.90
9486;DHT22;4781;48.776;9.200;2024-03-02T05:07:36;4.50;99.90
9486;DHT22;4781;48.776;9.200;2024-03-02T05:10:04;4.40;99.90
9486;DHT22;4781;48.776;9.200;2024-03-02T05:12:33;4.50;99.90
9486;DHT22;4781;48.776;9.200;2024-03-02T05:15:11;4.50;99.90
9486;DHT22;4781;48.776;9.200;2024-03-02T05:17:41;4.40;99.90
9486;DHT22;4781;48.776;9.200;2024-03-02T05:20:13;4.40;99.90
9486;DHT22;4781;48.776;9.200;2024-03-02T05:22:41;4.40;99.90
9486;DHT22;4781;48.776;9.200;2024-03-02T05:25:09;4.30;99.90
9486;DHT22;4781;48.776;9.200;2024-03-02T05:27:38;4.30;99.90
9486;DHT22;4781;48.776;9.200;2024-03-02T05:30:08;4.30;99.90
9486;DHT22;4781;48.776;9.200;2024-03-02T05:32:37;4.30;99.90
9486;DHT22;4781;48.776;9.200;2024-03-02T05:35:05;4.30;99.90
9486;DHT22;4781;48.776;9.200;2024-03-02T05:37:35;4.30;99.90
9486;DHT22;4781;48.776;9.200;2024-03-02T05:40:03;4.30;99.90
9486;DHT22;4781;48.776;9.200;2024-03-02T05:42:32;4.30;99.90
9486;DHT22;4781;48.776;9.200;2024-03-02T05:45:01;4.30;99.90
9486;DHT22;4781;48.776;9.200;2024-03-02T05:47:30;4.20;99.90
9486;DHT22;4781;48.776;9.200;2024-03-02T05:49:59;4.20;99.90
9486;DHT22;4781;48.776;9.200;2024-03-02T05:52:27;4.20;99.90
9486;DHT22;4781;48.776;9.200;2024-03-02T05:54:56;4.20;99.90
9486;DHT22;4781;48.776;9.200;2024-03-02T05:57:24;4.20;99.90
9486;DHT22;4781;48.776;9.200;2024-03-02T06:00:00;4.20;99.90
9486;DHT22;4781;48.776;9.200;2024-03-02T06:02:30;4.30;99.90
9486;DHT22;4781;48.776;9.200;2024-03-02T06:04:58;4.30;99.90
9486;DHT22;4781;48.776;9.200;2024-03-02T06:07:27;4.30;99.90
9486;DHT22;4781;48.776;9.200;2024-03-02T06:09:55;4.30;99.90
9486;DHT22;4781;48.776;9.200;2024-03-02T06:12:25;4.40;99.90
9486;DHT22;4781;48.776;9.200;2024-03-02T06:14:53;4.40;99.90
9486;DHT22;4781;48.776;9.200;2024-03-02T06:17:21;4.40;99.90
9486;DHT22;4781;48.776;9.200;2024-03-02T06:19:50;4.40;99.90
9486;DHT22;4781;48.776;9.200;2024-03-02T06:22:18;4.40;99.90
9486;DHT22;4781;48.776;9.200;2024-03-02T06:24:47;4.40;99.90
9486;DHT22;4781;48.776;9.200;2024-03-02T06:27:16;4.50;99.90
9486;DHT22;4781;48.776;9.200;2024-03-02T06:29:44;4.40;99.90
9486;DHT22;4781;48.776;9.200;2024-03-02T06:32:13;4.40;99.90
9486;DHT22;4781;48.776;9.200;2024-03-02T06:34:41;4.40;99.90
9486;DHT22;4781;48.776;9.200;2024-03-02T06:37:09;4.40;99.90
9486;DHT22;4781;48.776;9.200;2024-03-02T06:39:39;4.50;99.90
9486;DHT22;4781;48.776;9.200;2024-03-02T06:42:07;4.50;99.90
9486;DHT22;4781;48.776;9.200;2024-03-02T06:44:36;4.60;99.90
9486;DHT22;4781;48.776;9.200;2024-03-02T06:47:04;4.70;99.90
9486;DHT22;4781;48.776;9.200;2024-03-02T06:49:32;4.80;99.90
9486;DHT22;4781;48.776;9.200;2024-03-02T06:52:01;4.80;99.90
9486;DHT22;4781;48.776;9.200;2024-03-02T06:54:30;4.80;99.90
9486;DHT22;4781;48.776;9.200;2024-03-02T06:56:58;4.90;99.90
9486;DHT22;4781;48.776;9.200;2024-03-02T06:59:27;4.90;99.90
9486;DHT22;4781;48.776;9.200;2024-03-02T07:01:55;5.00;99.90
9486;DHT22;4781;48.776;9.200;2024-03-02T07:04:23;5.10;99.90
9486;DHT22;4781;48.776;9.200;2024-03-02T07:06:52;5.10;99.90
9486;DHT22;4781;48.776;9.200;2024-03-02T07:09:21;5.10;99.90
9486;DHT22;4781;48.776;9.200;2024-03-02T07:11:50;5.20;99.90
9486;DHT22;4781;48.776;9.200;2024-03-02T07:14:18;5.30;99.90
9486;DHT22;4781;48.776;9.200;2024-03-02T07:16:46;5.30;99.90
9486;DHT22;4781;48.776;9.200;2024-03-02T07:19:15;5.40;99.90
9486;DHT22;4781;48.776;9.200;2024-03-02T07:21:43;5.50;99.90
9486;DHT22;4781;48.776;9.200;2024-03-02T07:24:11;5.60;99.90
9486;DHT22;4781;48.776;9.200;2024-03-02T07:26:41;5.70;99.90
9486;DHT22;4781;48.776;9.200;2024-03-02T07:29:10;5.80;99.90
9486;DHT22;4781;48.776;9.200;2024-03-02T07:31:38;5.90;99.90
9486;DHT22;4781;48.776;9.200;2024-03-02T07:34:07;6.00;99.90
9486;DHT22;4781;48.776;9.200;2024-03-02T07:36:35;6.10;99.90
9486;DHT22;4781;48.776;9.200;2024-03-02T07:39:05;6.10;99.90
9486;DHT22;4781;48.776;9.200;2024-03-02T07:41:34;6.30;99.90
9486;DHT22;4781;48.776;9.200;2024-03-02T07:44:02;6.30;99.90
9486;DHT22;4781;48.776;9.200;2024-03-02T07:46:30;6.40;99.90
9486;DHT22;4781;48.776;9.200;2024-03-02T07:48:59;6.40;99.90
9486;DHT22;4781;48.776;9.200;2024-03-02T07:51:27;6.50;99.90
9486;DHT22;4781;48.776;9.200;2024-03-02T07:53:55;6.60;99.90
9486;DHT22;4781;48.776;9.200;2024-03-02T07:56:24;6.70;99.90
9486;DHT22;4781;48.776;9.200;2024-03-02T07:58:53;6.70;99.90
9486;DHT22;4781;48.776;9.200;2024-03-02T08:01:23;6.80;99.90
9486;DHT22;4781;48.776;9.200;2024-03-02T08:03:52;6.80;99.90
9486;DHT22;4781;48.776;9.200;2024-03-02T08:06:21;6.90;99.90
9486;DHT22;4781;48.776;9.200;2024-03-02T08:08:50;7.00;99.90
9486;DHT22;4781;48.776;9.200;2024-03-02T08:11:18;7.00;99.90
9486;DHT22;4781;48.776;9.200;2024-03-02T08:13:48;7.00;99.90
9486;DHT22;4781;48.776;9.200;2024-03-02T08:16:17;7.10;99.90
9486;DHT22;4781;48.776;9.200;2024-03-02T08:18:48;7.10;99.90
9486;DHT22;4781;48.776;9.200;2024-03-02T08:21:17;7.20;99.90
9486;DHT22;4781;48.776;9.200;2024-03-02T08:23:45;7.30;99.90
9486;DHT22;4781;48.776;9.200;2024-03-02T08:26:14;7.30;99.90
9486;DHT22;4781;48.776;9.200;2024-03-02T08:28:42;7.30;99.90
9486;DHT22;4781;48.776;9.200;2024-03-02T08:31:11;7.50;99.90
9486;DHT22;4781;48.776;9.200;2024-03-02T08:33:39;7.60;99.90
9486;DHT22;4781;48.776;9.200;2024-03-02T08:36:08;7.70;99.90
9486;DHT22;4781;48.776;9.200;2024-03-02T08:38:37;7.80;99.90
9486;DHT22;4781;48.776;9.200;2024-03-02T08:41:05;7.90;99.90
9486;DHT22;4781;48.776;9.200;2024-03-02T08:43:35;7.90;99.90
9486;DHT22;4781;48.776;9.200;2024-03-02T08:46:03;8.10;99.90
9486;DHT22;4781;48.776;9.200;2024-03-02T08:48:31;8.30;99.90
9486;DHT22;4781;48.776;9.200;2024-03-02T08:51:00;8.40;99.90
9486;DHT22;4781;48.776;9.200;2024-03-02T08:53:30;8.60;99.90
9486;DHT22;4781;48.776;9.200;2024-03-02T08:55:58;8.80;99.90
9486;DHT22;4781;48.776;9.200;2024-03-02T08:58:27;8.90;99.90
9486;DHT22;4781;48.776;9.200;2024-03-02T09:00:55;9.00;99.90
9486;DHT22;4781;48.776;9.200;2024-03-02T09:03:23;9.30;99.90
9486;DHT22;4781;48.776;9.200;2024-03-02T09:05:52;9.40;99.90
9486;DHT22;4781;48.776;9.200;2024-03-02T09:08:20;9.50;99.90
9486;DHT22;4781;48.776;9.200;2024-03-02T09:10:48;9.80;99.90
9486;DHT22;4781;48.776;9.200;2024-03-02T09:13:17;9.90;99.90
9486;DHT22;4781;48.776;9.200;2024-03-02T09:15:46;9.90;99.90
9486;DHT22;4781;48.776;9.200;2024-03-02T09:18:14;10.10;99.90
9486;DHT22;4781;48.776;9.200;2024-03-02T09:20:43;10.20;99.90
9486;DHT22;4781;48.776;9.200;2024-03-02T09:23:12;10.10;99.90
9486;DHT22;4781;48.776;9.200;2024-03-02T09:25:40;10.30;99.90
9486;DHT22;4781;48.776;9.200;2024-03-02T09:28:10;10.60;99.90
9486;DHT22;4781;48.776;9.200;2024-03-02T09:30:39;10.70;99.90
9486;DHT22;4781;48.776;9.200;2024-03-02T09:33:07;11.00;99.90
9486;DHT22;4781;48.776;9.200;2024-03-02T09:35:35;11.20;99.90
9486;DHT22;4781;48.776;9.200;2024-03-02T09:38:04;11.30;99.90
9486;DHT22;4781;48.776;9.200;2024-03-02T09:40:33;11.40;99.90
9486;DHT22;4781;48.776;9.200;2024-03-02T09:43:02;11.60;99.90
9486;DHT22;4781;48.776;9.200;2024-03-02T09:45:31;11.70;99.90
9486;DHT22;4781;48.776;9.200;2024-03-02T09:48:19;11.90;99.90
9486;DHT22;4781;48.776;9.200;2024-03-02T09:50:47;12.00;99.90
9486;DHT22;4781;48.776;9.200;2024-03-02T09:53:16;12.20;99.90
9486;DHT22;4781;48.776;9.200;2024-03-02T09:55:47;12.10;99.90
9486;DHT22;4781;48.776;9.200;2024-03-02T09:58:16;12.10;99.90
9486;DHT22;4781;48.776;9.200;2024-03-02T10:00:44;12.50;99.90
9486;DHT22;4781;48.776;9.200;2024-03-02T10:03:12;12.60;99.90
9486;DHT22;4781;48.776;9.200;2024-03-02T10:05:41;12.90;99.90
9486;DHT22;4781;48.776;9.200;2024-03-02T10:08:10;12.90;99.90
9486;DHT22;4781;48.776;9.200;2024-03-02T10:10:40;13.10;99.90
9486;DHT22;4781;48.776;9.200;2024-03-02T10:13:13;13.30;99.90
9486;DHT22;4781;48.776;9.200;2024-03-02T10:15:43;13.50;99.90
9486;DHT22;4781;48.776;9.200;2024-03-02T10:18:12;13.70;99.90
9486;DHT22;4781;48.776;9.200;2024-03-02T10:20:42;13.80;99.60
9486;DHT22;4781;48.776;9.200;2024-03-02T10:23:12;13.60;99.90
9486;DHT22;4781;48.776;9.200;2024-03-02T10:25:44;13.60;99.90
9486;DHT22;4781;48.776;9.200;2024-03-02T10:28:12;14.00;99.60
9486;DHT22;4781;48.776;9.200;2024-03-02T10:30:41;14.20;99.90
9486;DHT22;4781;48.776;9.200;2024-03-02T10:33:09;14.10;99.90
9486;DHT22;4781;48.776;9.200;2024-03-02T10:35:38;14.50;99.00
9486;DHT22;4781;48.776;9.200;2024-03-02T10:38:07;14.50;99.90
9486;DHT22;4781;48.776;9.200;2024-03-02T10:40:36;14.60;98.30
9486;DHT22;4781;48.776;9.200;2024-03-02T10:43:05;14.80;98.20
9486;DHT22;4781;48.776;9.200;2024-03-02T10:45:34;14.90;98.70
9486;DHT22;4781;48.776;9.200;2024-03-02T10:48:02;15.00;97.80
9486;DHT22;4781;48.776;9.200;2024-03-02T10:50:32;15.20;99.00
9486;DHT22;4781;48.776;9.200;2024-03-02T10:53:00;15.50;99.40
9486;DHT22;4781;48.776;9.200;2024-03-02T10:55:29;15.60;97.50
9486;DHT22;4781;48.776;9.200;2024-03-02T10:57:58;15.70;96.70
9486;DHT22;4781;48.776;9.200;2024-03-02T11:03:19;15.80;96.30
9486;DHT22;4781;48.776;9.200;2024-03-02T11:05:47;15.70;96.00
9486;DHT22;4781;48.776;9.200;2024-03-02T11:08:18;15.90;96.60
9486;DHT22;4781;48.776;9.200;2024-03-02T11:10:51;16.00;95.20
9486;DHT22;4781;48.776;9.200;2024-03-02T11:13:30;16.20;94.80
9486;DHT22;4781;48.776;9.200;2024-03-02T11:15:59;15.90;93.60
9486;DHT22;4781;48.776;9.200;2024-03-02T11:18:29;15.90;93.60
9486;DHT22;4781;48.776;9.200;2024-03-02T11:20:58;16.20;94.10
9486;DHT22;4781;48.776;9.200;2024-03-02T11:23:34;16.30;91.80
9486;DHT22;4781;48.776;9.200;2024-03-02T11:26:22;16.40;93.50
9486;DHT22;4781;48.776;9.200;2024-03-02T11:28:51;16.60;93.40
9486;DHT22;4781;48.776;9.200;2024-03-02T11:31:20;16.80;91.50
9486;DHT22;4781;48.776;9.200;2024-03-02T11:33:48;16.70;90.50
9486;DHT22;4781;48.776;9.200;2024-03-02T11:36:17;16.90;91.50
9486;DHT22;4781;48.776;9.200;2024-03-02T11:38:45;17.10;91.70
9486;DHT22;4781;48.776;9.200;2024-03-02T11:41:14;17.30;91.50
9486;DHT22;4781;48.776;9.200;2024-03-02T11:43:43;17.50;91.50
9486;DHT22;4781;48.776;9.200;2024-03-02T11:46:12;17.50;89.80
9486;DHT22;4781;48.776;9.200;2024-03-02T11:48:40;17.60;90.50
9486;DHT22;4781;48.776;9.200;2024-03-02T11:51:08;17.70;89.60
9486;DHT22;4781;48.776;9.200;2024-03-02T11:53:39;17.50;87.90
9486;DHT22;4781;48.776;9.200;2024-03-02T11:56:09;17.70;87.20
9486;DHT22;4781;48.776;9.200;2024-03-02T11:58:47;17.70;85.90
9486;DHT22;4781;48.776;9.200;2024-03-02T12:01:18;17.50;85.60
9486;DHT22;4781;48.776;9.200;2024-03-02T12:03:47;17.80;90.20
9486;DHT22;4781;48.776;9.200;2024-03-02T12:06:16;17.80;88.00
9486;DHT22;4781;48.776;9.200;2024-03-02T12:08:45;17.90;84.70
9486;DHT22;4781;48.776;9.200;2024-03-02T12:11:14;17.90;85.30
9486;DHT22;4781;48.776;9.200;2024-03-02T12:13:51;17.90;83.80
9486;DHT22;4781;48.776;9.200;2024-03-02T12:16:25;17.80;83.10
9486;DHT22;4781;48.776;9.200;2024-03-02T12:18:55;17.60;83.90
9486;DHT22;4781;48.776;9.200;2024-03-02T12:21:23;17.30;81.30
9486;DHT22;4781;48.776;9.200;2024-03-02T12:23:51;17.20;81.10
9486;DHT22;4781;48.776;9.200;2024-03-02T12:26:20;16.80;80.40
9486;DHT22;4781;48.776;9.200;2024-03-02T12:28:50;17.00;84.00
9486;DHT22;4781;48.776;9.200;2024-03-02T12:31:18;17.10;84.00
9486;DHT22;4781;48.776;9.200;2024-03-02T12:33:47;17.20;82.70
9486;DHT22;4781;48.776;9.200;2024-03-02T12:36:15;17.10;82.10
9486;DHT22;4781;48.776;9.200;2024-03-02T12:38:45;16.80;81.20
9486;DHT22;4781;48.776;9.200;2024-03-02T12:41:17;16.90;82.10
9486;DHT22;4781;48.776;9.200;2024-03-02T12:43:45;17.00;82.20
9486;DHT22;4781;48.776;9.200;2024-03-02T12:46:14;16.90;82.70
9486;DHT22;4781;48.776;9.200;2024-03-02T12:48:43;16.90;83.20
9486;DHT22;4781;48.776;9.200;2024-03-02T12:51:11;16.90;83.60
9486;DHT22;4781;48.776;9.200;2024-03-02T12:53:40;16.80;80.40
9486;DHT22;4781;48.776;9.200;2024-03-02T12:56:09;16.70;82.10
9486;DHT22;4781;48.776;9.200;2024-03-02T12:58:41;16.60;81.90
9486;DHT22;4781;48.776;9.200;2024-03-02T13:01:09;16.70;82.30
9486;DHT22;4781;48.776;9.200;2024-03-02T13:03:38;16.60;80.00
9486;DHT22;4781;48.776;9.200;2024-03-02T13:06:07;16.50;80.40
9486;DHT22;4781;48.776;9.200;2024-03-02T13:08:36;16.40;80.60
9486;DHT22;4781;48.776;9.200;2024-03-02T13:11:04;16.50;79.70
9486;DHT22;4781;48.776;9.200;2024-03-02T13:13:33;16.50;78.00
9486;DHT22;4781;48.776;9.200;2024-03-02T13:16:02;16.80;80.00
9486;DHT22;4781;48.776;9.200;2024-03-02T13:18:33;16.90;78.60
9486;DHT22;4781;48.776;9.200;2024-03-02T13:21:02;16.90;78.50
9486;DHT22;4781;48.776;9.200;2024-03-02T13:23:31;17.00;78.90
9486;DHT22;4781;48.776;9.200;2024-03-02T13:25:59;17.10;79.60
9486;DHT22;4781;48.776;9.200;2024-03-02T13:28:28;17.20;79.10
9486;DHT22;4781;48.776;9.200;2024-03-02T13:30:56;17.00;78.10
9486;DHT22;4781;48.776;9.200;2024-03-02T13:33:25;16.90;77.60
9486;DHT22;4781;48.776;9.200;2024-03-02T13:35:53;16.90;80.80
9486;DHT22;4781;48.776;9.200;2024-03-02T13:38:22;16.70;78.90
9486;DHT22;4781;48.776;9.200;2024-03-02T13:40:50;16.80;81.10
9486;DHT22;4781;48.776;9.200;2024-03-02T13:43:19;16.70;76.70
9486;DHT22;4781;48.776;9.200;2024-03-02T13:45:47;16.60;77.70
9486;DHT22;4781;48.776;9.200;2024-03-02T13:48:15;16.60;77.30
9486;DHT22;4781;48.776;9.200;2024-03-02T13:50:44;16.70;77.50
9486;DHT22;4781;48.776;9.200;2024-03-02T13:53:12;16.70;77.00
9486;DHT22;4781;48.776;9.200;2024-03-02T13:55:41;16.60;76.50
9486;DHT22;4781;48.776;9.200;2024-03-02T13:58:10;16.60;78.20
9486;DHT22;4781;48.776;9.200;2024-03-02T14:00:39;16.70;77.00
9486;DHT22;4781;48.776;9.200;2024-03-02T14:03:07;16.70;75.80
9486;DHT22;4781;48.776;9.200;2024-03-02T14:05:36;16.70;78.60
9486;DHT22;4781;48.776;9.200;2024-03-02T14:08:04;16.70;76.90
9486;DHT22;4781;48.776;9.200;2024-03-02T14:10:33;16.70;77.80
9486;DHT22;4781;48.776;9.200;2024-03-02T14:13:02;16.60;76.00
9486;DHT22;4781;48.776;9.200;2024-03-02T14:15:31;16.60;76.70
9486;DHT22;4781;48.776;9.200;2024-03-02T14:17:59;16.60;78.40
9486;DHT22;4781;48.776;9.200;2024-03-02T14:20:28;16.60;76.90
9486;DHT22;4781;48.776;9.200;2024-03-02T14:22:56;16.50;77.10
9486;DHT22;4781;48.776;9.200;2024-03-02T14:25:26;16.40;76.40
9486;DHT22;4781;48.776;9.200;2024-03-02T14:27:56;16.50;77.10
9486;DHT22;4781;48.776;9.200;2024-03-02T14:30:24;16.30;75.60
9486;DHT22;4781;48.776;9.200;2024-03-02T14:32:53;16.30;75.40
9486;DHT22;4781;48.776;9.200;2024-03-02T14:35:21;16.30;76.10
9486;DHT22;4781;48.776;9.200;2024-03-02T14:37:50;16.20;76.50
9486;DHT22;4781;48.776;9.200;2024-03-02T14:40:19;16.20;75.50
9486;DHT22;4781;48.776;9.200;2024-03-02T14:42:48;16.30;76.40
9486;DHT22;4781;48.776;9.200;2024-03-02T14:45:16;16.30;75.60
9486;DHT22;4781;48.776;9.200;2024-03-02T14:47:45;16.40;75.90
9486;DHT22;4781;48.776;9.200;2024-03-02T14:50:13;16.40;75.50
9486;DHT22;4781;48.776;9.200;2024-03-02T14:52:44;16.50;75.00
9486;DHT22;4781;48.776;9.200;2024-03-02T14:55:13;16.50;76.50
9486;DHT22;4781;48.776;9.200;2024-03-02T14:57:41;16.50;73.50
9486;DHT22;4781;48.776;9.200;2024-03-02T15:00:10;16.50;71.50
9486;DHT22;4781;48.776;9.200;2024-03-02T15:02:39;16.30;70.30
9486;DHT22;4781;48.776;9.200;2024-03-02T15:05:08;16.40;70.60
9486;DHT22;4781;48.776;9.200;2024-03-02T15:07:36;16.40;72.70
9486;DHT22;4781;48.776;9.200;2024-03-02T15:10:05;16.50;70.60
9486;DHT22;4781;48.776;9.200;2024-03-02T15:12:34;16.50;71.20
9486;DHT22;4781;48.776;9.200;2024-03-02T15:15:04;16.60;70.00
9486;DHT22;4781;48.776;9.200;2024-03-02T15:17:33;16.50;71.50
9486;DHT22;4781;48.776;9.200;2024-03-02T15:20:01;16.50;68.80
9486;DHT22;4781;48.776;9.200;2024-03-02T15:22:31;16.50;70.50
9486;DHT22;4781;48.776;9.200;2024-03-02T15:24:59;16.60;71.20
9486;DHT22;4781;48.776;9.200;2024-03-02T15:27:27;16.60;71.60
9486;DHT22;4781;48.776;9.200;2024-03-02T15:29:56;16.60;73.10
9486;DHT22;4781;48.776;9.200;2024-03-02T15:32:24;16.40;69.80
9486;DHT22;4781;48.776;9.200;2024-03-02T15:34:53;16.40;71.40
9486;DHT22;4781;48.776;9.200;2024-03-02T15:37:21;16.30;71.40
9486;DHT22;4781;48.776;9.200;2024-03-02T15:39:50;16.20;69.70
9486;DHT22;4781;48.776;9.200;2024-03-02T15:42:18;16.10;69.80
9486;DHT22;4781;48.776;9.200;2024-03-02T15:44:49;15.90;70.20
9486;DHT22;4781;48.776;9.200;2024-03-02T15:47:17;15.80;69.70
9486;DHT22;4781;48.776;9.200;2024-03-02T15:49:45;15.80;70.60
9486;DHT22;4781;48.776;9.200;2024-03-02T15:52:15;15.70;71.60
9486;DHT22;4781;48.776;9.200;2024-03-02T15:54:46;15.60;71.30
9486;DHT22;4781;48.776;9.200;2024-03-02T15:57:16;15.50;71.70
9486;DHT22;4781;48.776;9.200;2024-03-02T15:59:45;15.30;71.30
9486;DHT22;4781;48.776;9.200;2024-03-02T16:02:13;15.30;72.10
9486;DHT22;4781;48.776;9.200;2024-03-02T16:04:42;15.10;72.30
9486;DHT22;4781;48.776;9.200;2024-03-02T16:07:10;15.00;72.50
9486;DHT22;4781;48.776;9.200;2024-03-02T16:09:38;14.90;72.60
9486;DHT22;4781;48.776;9.200;2024-03-02T16:12:07;14.80;72.80
9486;DHT22;4781;48.776;9.200;2024-03-02T16:14:35;14.80;73.20
9486;DHT22;4781;48.776;9.200;2024-03-02T16:17:04;14.70;73.60
9486;DHT22;4781;48.776;9.200;2024-03-02T16:19:32;14.60;74.40
9486;DHT22;4781;48.776;9.200;2024-03-02T16:22:02;14.50;74.80
9486;DHT22;4781;48.776;9.200;2024-03-02T16:24:32;14.50;75.90